createdAt,value
2023-04-13T00:01:52.382Z,985.16
2023-04-13T00:06:52.255Z,985.02
2023-04-13T00:11:52.178Z,985.03
2023-04-13T00:16:52.150Z,984.87
2023-04-13T00:21:52.041Z,985.02
2023-04-13T00:26:51.992Z,985.10
2023-04-13T00:31:51.910Z,985.42
2023-04-13T00:36:51.851Z,985.22
2023-04-13T00:41:51.775Z,985.16
2023-04-13T00:46:51.723Z,985.20
2023-04-13T00:51:51.644Z,985.26
2023-04-13T00:56:51.587Z,985.34
2023-04-13T01:01:51.544Z,985.35
2023-04-13T01:06:51.459Z,985.36
2023-04-13T01:11:51.389Z,985.28
2023-04-13T01:16:51.323Z,985.13
2023-04-13T01:21:51.244Z,985.37
2023-04-13T01:26:51.185Z,985.38
2023-04-13T01:31:51.249Z,985.38
2023-04-13T01:36:51.065Z,985.48
2023-04-13T01:41:50.980Z,985.37
2023-04-13T01:46:50.944Z,985.35
2023-04-13T01:51:50.849Z,985.34
2023-04-13T01:56:50.795Z,985.33
2023-04-13T02:01:50.730Z,985.33
2023-04-13T02:06:50.656Z,985.54
2023-04-13T02:11:50.581Z,985.46
2023-04-13T02:16:50.558Z,985.50
2023-04-13T02:21:50.454Z,985.52
2023-04-13T02:26:50.388Z,985.57
2023-04-13T02:31:50.354Z,985.63
2023-04-13T02:36:50.258Z,985.63
2023-04-13T02:41:50.181Z,985.61
2023-04-13T02:46:50.124Z,985.65
2023-04-13T02:51:50.052Z,985.59
2023-04-13T02:56:49.986Z,985.57
2023-04-13T03:01:50.027Z,985.50
2023-04-13T03:06:49.854Z,985.61
2023-04-13T03:11:49.778Z,985.70
2023-04-13T03:16:49.748Z,985.67
2023-04-13T03:21:49.648Z,985.74
2023-04-13T03:26:49.591Z,985.64
2023-04-13T03:31:49.699Z,985.54
2023-04-13T03:36:49.448Z,985.58
2023-04-13T03:41:49.375Z,985.51
2023-04-13T03:46:49.325Z,985.46
2023-04-13T03:51:49.241Z,985.46
2023-04-13T03:56:49.181Z,985.51
2023-04-13T04:01:49.128Z,985.47
2023-04-13T04:06:49.047Z,985.52
2023-04-13T04:11:48.972Z,985.63
2023-04-13T04:16:49.019Z,985.68
2023-04-13T04:21:48.842Z,985.62
2023-04-13T04:26:48.782Z,985.58
2023-04-13T04:31:48.863Z,985.54
2023-04-13T04:36:48.648Z,985.73
2023-04-13T04:41:48.574Z,985.78
2023-04-13T04:46:48.511Z,985.86
2023-04-13T04:51:48.435Z,985.88
2023-04-13T04:56:48.383Z,986.02
2023-04-13T05:01:48.381Z,986.14
2023-04-13T05:06:48.270Z,986.20
2023-04-13T05:11:48.166Z,986.27
2023-04-13T05:16:48.108Z,986.39
2023-04-13T05:21:48.032Z,986.43
2023-04-13T05:26:47.982Z,986.47
2023-04-13T05:31:47.933Z,986.48
2023-04-13T05:36:47.851Z,986.55
2023-04-13T05:41:47.773Z,986.60
2023-04-13T05:46:47.708Z,986.64
2023-04-13T05:51:47.647Z,986.73
2023-04-13T05:56:47.582Z,986.78
2023-04-13T06:01:48.321Z,986.83
2023-04-13T06:06:47.442Z,986.84
2023-04-13T06:11:47.364Z,986.89
2023-04-13T06:16:47.353Z,986.87
2023-04-13T06:21:47.241Z,986.83
2023-04-13T06:26:47.179Z,986.82
2023-04-13T06:31:47.105Z,986.75
2023-04-13T06:36:47.118Z,986.73
2023-04-13T06:41:46.975Z,986.77
2023-04-13T06:46:46.975Z,986.86
2023-04-13T06:51:46.840Z,986.87
2023-04-13T06:56:46.777Z,986.89
2023-04-13T07:01:46.772Z,986.85
2023-04-13T07:06:46.645Z,986.94
2023-04-13T07:11:46.570Z,986.76
2023-04-13T07:16:46.508Z,986.73
2023-04-13T07:21:46.434Z,986.69
2023-04-13T07:26:46.404Z,986.75
2023-04-13T07:31:46.339Z,986.61
2023-04-13T07:36:46.308Z,986.73
2023-04-13T07:41:46.167Z,986.72
2023-04-13T07:46:46.142Z,986.79
2023-04-13T07:51:46.034Z,986.84
2023-04-13T07:56:45.978Z,986.95
2023-04-13T08:01:45.941Z,986.97
2023-04-13T08:06:45.845Z,987.02
2023-04-13T08:11:45.785Z,987.00
2023-04-13T08:16:45.701Z,987.02
2023-04-13T08:21:45.638Z,987.18
2023-04-13T08:26:45.579Z,987.16
2023-04-13T08:31:45.527Z,987.16
2023-04-13T08:36:45.435Z,987.34
2023-04-13T08:41:45.386Z,987.42
2023-04-13T08:46:45.327Z,987.58
2023-04-13T08:51:45.236Z,987.70
2023-04-13T08:56:46.954Z,987.72
2023-04-13T09:01:45.434Z,987.56
2023-04-13T09:06:45.034Z,987.54
2023-04-13T09:11:44.972Z,987.56
2023-04-13T09:16:44.925Z,987.62
2023-04-13T09:21:45.096Z,987.58
2023-04-13T09:26:44.766Z,987.62
2023-04-13T09:31:45.727Z,987.66
2023-04-13T09:36:54.272Z,987.71
2023-04-13T09:41:44.574Z,987.74
2023-04-13T09:46:44.553Z,987.75
2023-04-13T09:51:44.521Z,987.73
2023-04-13T09:56:44.374Z,987.78
2023-04-13T10:01:44.398Z,987.81
2023-04-13T10:06:44.237Z,987.76
2023-04-13T10:11:44.181Z,987.83
2023-04-13T10:16:44.259Z,987.84
2023-04-13T10:21:45.231Z,987.84
2023-04-13T10:26:44.036Z,987.88
2023-04-13T10:31:43.959Z,987.96
2023-04-13T10:36:43.853Z,988.10
2023-04-13T10:41:43.789Z,988.11
2023-04-13T10:46:43.727Z,988.16
2023-04-13T10:51:43.660Z,988.08
2023-04-13T10:56:43.567Z,988.15
2023-04-13T11:01:43.534Z,988.25
2023-04-13T11:06:43.442Z,988.23
2023-04-13T11:11:43.375Z,988.24
2023-04-13T11:16:43.336Z,988.23
2023-04-13T11:21:43.246Z,988.23
2023-04-13T11:26:43.525Z,988.33
2023-04-13T11:31:43.149Z,988.34
2023-04-13T11:36:43.032Z,988.35
2023-04-13T11:41:42.988Z,988.31
2023-04-13T11:46:42.965Z,988.33
2023-04-13T11:51:42.844Z,988.34
2023-04-13T11:56:42.766Z,988.29
2023-04-13T12:01:49.508Z,988.29
2023-04-13T12:06:42.763Z,988.23
2023-04-13T12:11:46.003Z,988.24
2023-04-13T12:17:03.012Z,988.18
2023-04-13T12:21:44.843Z,988.17
2023-04-13T12:27:17.060Z,988.20
2023-04-13T12:31:43.452Z,988.26
2023-04-13T12:36:42.231Z,988.33
2023-04-13T12:41:42.171Z,988.41
2023-04-13T12:46:42.146Z,988.41
2023-04-13T12:51:42.037Z,988.32
2023-04-13T12:56:41.972Z,988.29
2023-04-13T13:01:41.945Z,988.25
2023-04-13T13:06:41.832Z,988.25
2023-04-13T13:11:41.776Z,988.37
2023-04-13T13:16:41.736Z,988.41
2023-04-13T13:21:41.665Z,988.60
2023-04-13T13:31:41.574Z,988.56
2023-04-13T13:36:41.440Z,988.52
2023-04-13T13:41:41.383Z,988.50
2023-04-13T13:46:41.378Z,988.53
2023-04-13T13:51:41.253Z,988.50
2023-04-13T13:56:41.175Z,988.54
2023-04-13T14:01:41.206Z,988.49
2023-04-13T14:06:41.051Z,988.58
2023-04-13T14:11:40.993Z,988.61
2023-04-13T14:16:40.917Z,988.60
2023-04-13T14:21:40.865Z,988.62
2023-04-13T14:26:40.791Z,988.63
2023-04-13T14:31:40.756Z,988.70
2023-04-13T14:36:40.651Z,988.81
2023-04-13T14:41:40.601Z,988.79
2023-04-13T14:46:40.668Z,988.76
2023-04-13T14:51:40.487Z,988.89
2023-04-13T14:56:40.396Z,988.95
2023-04-13T15:01:40.376Z,988.91
2023-04-13T15:06:40.300Z,988.98
2023-04-13T15:11:40.211Z,989.04
2023-04-13T15:16:40.178Z,989.07
2023-04-13T15:21:40.067Z,989.13
2023-04-13T15:26:39.988Z,989.19
2023-04-13T15:31:40.055Z,989.17
2023-04-13T15:36:39.857Z,989.30
2023-04-13T15:41:39.813Z,989.29
2023-04-13T15:46:40.014Z,989.25
2023-04-13T15:51:39.668Z,989.27
2023-04-13T15:56:39.599Z,989.30
2023-04-13T16:01:39.561Z,989.32
2023-04-13T16:06:39.452Z,989.36
2023-04-13T16:11:39.396Z,989.39
2023-04-13T16:16:39.320Z,989.35
2023-04-13T16:21:39.258Z,989.28
2023-04-13T16:26:39.177Z,989.35
2023-04-13T16:31:39.192Z,989.37
2023-04-13T16:36:39.054Z,989.26
2023-04-13T16:41:38.984Z,989.27
2023-04-13T16:46:38.952Z,989.31
2023-04-13T16:51:38.852Z,989.19
2023-04-13T16:56:38.775Z,989.25
2023-04-13T17:01:39.630Z,989.12
2023-04-13T17:06:38.645Z,989.14
2023-04-13T17:11:38.597Z,989.18
2023-04-13T17:16:38.552Z,989.11
2023-04-13T17:21:38.447Z,989.16
2023-04-13T17:26:38.373Z,989.27
2023-04-13T17:31:38.345Z,989.43
2023-04-13T17:36:38.238Z,989.57
2023-04-13T17:41:38.179Z,989.63
2023-04-13T17:46:38.117Z,989.93
2023-04-13T17:51:38.116Z,990.08
2023-04-13T17:56:37.979Z,990.04
2023-04-13T18:01:37.942Z,990.09
2023-04-13T18:06:37.839Z,990.34
2023-04-13T18:11:37.782Z,990.43
2023-04-13T18:16:37.856Z,990.56
2023-04-13T18:21:37.663Z,990.66
2023-04-13T18:26:37.576Z,990.84
2023-04-13T18:31:37.626Z,990.90
2023-04-13T18:36:37.445Z,990.87
2023-04-13T18:41:38.962Z,990.97
2023-04-13T18:46:37.364Z,991.05
2023-04-13T18:51:37.251Z,991.12
2023-04-13T18:56:37.178Z,991.23
2023-04-13T19:01:37.209Z,991.19
2023-04-13T19:06:37.054Z,991.21
2023-04-13T19:11:36.988Z,991.19
2023-04-13T19:16:36.982Z,991.28
2023-04-13T19:21:36.848Z,991.27
2023-04-13T19:26:36.775Z,991.29
2023-04-13T19:31:36.748Z,991.26
2023-04-13T19:36:36.647Z,991.19
2023-04-13T19:41:36.590Z,991.12
2023-04-13T19:46:36.516Z,991.07
2023-04-13T19:51:36.503Z,991.07
2023-04-13T19:56:36.554Z,991.14
2023-04-13T20:01:36.366Z,991.11
2023-04-13T20:06:36.241Z,991.22
2023-04-13T20:11:36.182Z,991.17
2023-04-13T20:16:36.102Z,991.12
2023-04-13T20:21:36.092Z,991.17
2023-04-13T20:26:35.973Z,991.23
2023-04-13T20:31:35.946Z,991.24
2023-04-13T20:36:35.838Z,991.25
2023-04-13T20:41:35.774Z,991.18
2023-04-13T20:46:35.876Z,991.23
2023-04-13T20:51:35.644Z,991.22
2023-04-13T20:56:35.591Z,991.20
2023-04-13T21:01:35.541Z,991.20
2023-04-13T21:06:35.439Z,991.20
2023-04-13T21:11:35.380Z,991.31
2023-04-13T21:16:35.349Z,991.29
2023-04-13T21:21:35.251Z,991.24
2023-04-13T21:26:35.210Z,991.26
2023-04-13T21:31:35.163Z,991.21
2023-04-13T21:41:34.977Z,991.42
2023-04-13T21:46:34.955Z,991.33
2023-04-13T21:51:34.845Z,991.37
2023-04-13T21:56:34.773Z,991.48
2023-04-13T22:01:34.792Z,991.37
2023-04-13T22:06:34.647Z,991.35
2023-04-13T22:11:34.593Z,991.14
2023-04-13T22:16:34.538Z,991.04
2023-04-13T22:21:34.454Z,990.82
2023-04-13T22:26:34.383Z,990.73
2023-04-13T22:31:34.325Z,990.66
2023-04-13T22:36:34.240Z,990.75
2023-04-13T22:41:34.182Z,990.81
2023-04-13T22:46:34.131Z,990.96
2023-04-13T22:51:34.052Z,990.99
2023-04-13T22:56:33.986Z,991.17
2023-04-13T23:01:33.949Z,991.32
2023-04-13T23:06:33.852Z,991.28
2023-04-13T23:11:33.785Z,991.42
2023-04-13T23:16:33.767Z,991.47
2023-04-13T23:21:33.656Z,991.46
2023-04-13T23:26:33.574Z,991.44
2023-04-13T23:31:33.527Z,991.34
2023-04-13T23:36:33.442Z,991.32
2023-04-13T23:41:33.387Z,991.39
2023-04-13T23:46:33.311Z,991.34
2023-04-13T23:51:33.252Z,991.33
2023-04-13T23:56:33.178Z,991.34
